sensor_id;sensor_type;location;lat;lon;timestamp;P1;durP1;ratioP1;P2;durP2;ratioP2
34737;SDS011;39910;47.154;27.614;2023-06-04T00:00:05;14.25;;;13.45;;
34737;SDS011;39910;47.154;27.614;2023-06-04T00:02:31;14.10;;;13.30;;
34737;SDS011;39910;47.154;27.614;2023-06-04T00:04:57;15.80;;;14.80;;
34737;SDS011;39910;47.154;27.614;2023-06-04T00:07:22;15.40;;;14.50;;
34737;SDS011;39910;47.154;27.614;2023-06-04T00:09:48;14.88;;;14.07;;
34737;SDS011;39910;47.154;27.614;2023-06-04T00:12:13;15.80;;;14.90;;
34737;SDS011;39910;47.154;27.614;2023-06-04T00:14:38;14.90;;;14.10;;
34737;SDS011;39910;47.154;27.614;2023-06-04T00:17:04;15.90;;;14.90;;
34737;SDS011;39910;47.154;27.614;2023-06-04T00:19:29;15.40;;;14.55;;
34737;SDS011;39910;47.154;27.614;2023-06-04T00:21:55;16.02;;;15.05;;
34737;SDS011;39910;47.154;27.614;2023-06-04T00:24:20;16.50;;;15.50;;
34737;SDS011;39910;47.154;27.614;2023-06-04T00:26:45;16.13;;;15.15;;
34737;SDS011;39910;47.154;27.614;2023-06-04T00:29:11;16.58;;;15.55;;
34737;SDS011;39910;47.154;27.614;2023-06-04T00:31:36;14.90;;;14.15;;
34737;SDS011;39910;47.154;27.614;2023-06-04T00:34:03;17.35;;;16.17;;
34737;SDS011;39910;47.154;27.614;2023-06-04T00:36:28;15.80;;;14.90;;
34737;SDS011;39910;47.154;27.614;2023-06-04T00:38:54;15.02;;;14.23;;
34737;SDS011;39910;47.154;27.614;2023-06-04T00:41:19;16.70;;;15.60;;
34737;SDS011;39910;47.154;27.614;2023-06-04T00:43:45;16.60;;;15.50;;
34737;SDS011;39910;47.154;27.614;2023-06-04T00:46:11;14.55;;;13.75;;
34737;SDS011;39910;47.154;27.614;2023-06-04T00:48:42;14.88;;;14.05;;
34737;SDS011;39910;47.154;27.614;2023-06-04T00:51:08;15.10;;;14.23;;
34737;SDS011;39910;47.154;27.614;2023-06-04T00:53:33;15.05;;;14.23;;
34737;SDS011;39910;47.154;27.614;2023-06-04T00:55:59;15.30;;;14.40;;
34737;SDS011;39910;47.154;27.614;2023-06-04T00:58:24;15.55;;;14.65;;
34737;SDS011;39910;47.154;27.614;2023-06-04T01:00:51;15.00;;;14.20;;
34737;SDS011;39910;47.154;27.614;2023-06-04T01:03:18;15.57;;;14.68;;
34737;SDS011;39910;47.154;27.614;2023-06-04T01:05:48;14.60;;;13.80;;
34737;SDS011;39910;47.154;27.614;2023-06-04T01:08:16;15.50;;;14.60;;
34737;SDS011;39910;47.154;27.614;2023-06-04T01:10:52;14.65;;;13.85;;
34737;SDS011;39910;47.154;27.614;2023-06-04T01:13:18;16.38;;;15.30;;
34737;SDS011;39910;47.154;27.614;2023-06-04T01:15:43;15.55;;;14.60;;
34737;SDS011;39910;47.154;27.614;2023-06-04T01:18:08;14.30;;;13.60;;
34737;SDS011;39910;47.154;27.614;2023-06-04T01:20:36;14.15;;;13.45;;
34737;SDS011;39910;47.154;27.614;2023-06-04T01:25:45;14.98;;;14.15;;
34737;SDS011;39910;47.154;27.614;2023-06-04T01:28:14;15.48;;;14.57;;
34737;SDS011;39910;47.154;27.614;2023-06-04T01:30:42;15.25;;;14.35;;
34737;SDS011;39910;47.154;27.614;2023-06-04T01:33:08;17.00;;;15.90;;
34737;SDS011;39910;47.154;27.614;2023-06-04T01:35:34;16.08;;;15.18;;
34737;SDS011;39910;47.154;27.614;2023-06-04T01:37:59;15.77;;;14.85;;
34737;SDS011;39910;47.154;27.614;2023-06-04T01:40:25;16.30;;;15.30;;
34737;SDS011;39910;47.154;27.614;2023-06-04T01:42:51;16.23;;;15.23;;
34737;SDS011;39910;47.154;27.614;2023-06-04T01:45:16;16.00;;;15.00;;
34737;SDS011;39910;47.154;27.614;2023-06-04T01:47:42;15.93;;;14.93;;
34737;SDS011;39910;47.154;27.614;2023-06-04T01:50:07;15.25;;;14.43;;
34737;SDS011;39910;47.154;27.614;2023-06-04T01:52:38;15.43;;;14.52;;
34737;SDS011;39910;47.154;27.614;2023-06-04T01:55:04;15.40;;;14.50;;
34737;SDS011;39910;47.154;27.614;2023-06-04T01:57:29;16.67;;;15.55;;
34737;SDS011;39910;47.154;27.614;2023-06-04T01:59:55;14.70;;;13.90;;
34737;SDS011;39910;47.154;27.614;2023-06-04T02:02:20;15.60;;;14.70;;
34737;SDS011;39910;47.154;27.614;2023-06-04T02:04:45;15.30;;;14.40;;
34737;SDS011;39910;47.154;27.614;2023-06-04T02:07:11;14.90;;;14.05;;
34737;SDS011;39910;47.154;27.614;2023-06-04T02:09:42;15.35;;;14.40;;
34737;SDS011;39910;47.154;27.614;2023-06-04T02:12:08;14.85;;;14.00;;
34737;SDS011;39910;47.154;27.614;2023-06-04T02:14:33;14.32;;;13.52;;
34737;SDS011;39910;47.154;27.614;2023-06-04T02:16:58;15.05;;;14.15;;
34737;SDS011;39910;47.154;27.614;2023-06-04T02:19:24;15.55;;;14.55;;
34737;SDS011;39910;47.154;27.614;2023-06-04T02:21:51;14.70;;;13.80;;
34737;SDS011;39910;47.154;27.614;2023-06-04T02:24:16;14.05;;;13.27;;
34737;SDS011;39910;47.154;27.614;2023-06-04T02:26:41;14.88;;;13.98;;
34737;SDS011;39910;47.154;27.614;2023-06-04T02:29:06;13.95;;;13.20;;
34737;SDS011;39910;47.154;27.614;2023-06-04T02:31:32;13.95;;;13.25;;
34737;SDS011;39910;47.154;27.614;2023-06-04T02:33:57;14.15;;;13.35;;
34737;SDS011;39910;47.154;27.614;2023-06-04T02:36:22;14.65;;;13.85;;
34737;SDS011;39910;47.154;27.614;2023-06-04T02:38:49;15.70;;;14.70;;
34737;SDS011;39910;47.154;27.614;2023-06-04T02:41:16;15.00;;;14.10;;
34737;SDS011;39910;47.154;27.614;2023-06-04T02:43:41;14.02;;;13.23;;
34737;SDS011;39910;47.154;27.614;2023-06-04T02:46:06;14.35;;;13.55;;
34737;SDS011;39910;47.154;27.614;2023-06-04T02:48:33;13.07;;;12.38;;
34737;SDS011;39910;47.154;27.614;2023-06-04T02:50:58;13.90;;;13.10;;
34737;SDS011;39910;47.154;27.614;2023-06-04T02:53:23;14.43;;;13.60;;
34737;SDS011;39910;47.154;27.614;2023-06-04T02:55:50;13.35;;;12.65;;
34737;SDS011;39910;47.154;27.614;2023-06-04T02:58:18;13.48;;;12.77;;
34737;SDS011;39910;47.154;27.614;2023-06-04T03:00:44;13.30;;;12.60;;
34737;SDS011;39910;47.154;27.614;2023-06-04T03:03:10;13.80;;;13.07;;
34737;SDS011;39910;47.154;27.614;2023-06-04T03:05:35;14.00;;;13.25;;
34737;SDS011;39910;47.154;27.614;2023-06-04T03:08:02;13.80;;;13.10;;
34737;SDS011;39910;47.154;27.614;2023-06-04T03:10:29;13.52;;;12.82;;
34737;SDS011;39910;47.154;27.614;2023-06-04T03:12:56;14.77;;;13.98;;
34737;SDS011;39910;47.154;27.614;2023-06-04T03:15:21;13.98;;;13.25;;
34737;SDS011;39910;47.154;27.614;2023-06-04T03:17:46;14.93;;;14.05;;
34737;SDS011;39910;47.154;27.614;2023-06-04T03:20:12;13.85;;;13.15;;
34737;SDS011;39910;47.154;27.614;2023-06-04T03:22:37;14.27;;;13.52;;
34737;SDS011;39910;47.154;27.614;2023-06-04T03:25:02;13.27;;;12.68;;
34737;SDS011;39910;47.154;27.614;2023-06-04T03:27:28;13.55;;;12.85;;
34737;SDS011;39910;47.154;27.614;2023-06-04T03:29:53;13.55;;;12.85;;
34737;SDS011;39910;47.154;27.614;2023-06-04T03:32:18;13.32;;;12.70;;
34737;SDS011;39910;47.154;27.614;2023-06-04T03:34:44;13.60;;;12.90;;
34737;SDS011;39910;47.154;27.614;2023-06-04T03:37:09;13.73;;;13.02;;
34737;SDS011;39910;47.154;27.614;2023-06-04T03:39:35;13.95;;;13.25;;
34737;SDS011;39910;47.154;27.614;2023-06-04T03:42:00;13.65;;;12.95;;
34737;SDS011;39910;47.154;27.614;2023-06-04T03:44:25;13.50;;;12.80;;
34737;SDS011;39910;47.154;27.614;2023-06-04T03:46:51;13.75;;;13.05;;
34737;SDS011;39910;47.154;27.614;2023-06-04T03:49:16;13.80;;;13.10;;
34737;SDS011;39910;47.154;27.614;2023-06-04T03:51:44;13.55;;;12.88;;
34737;SDS011;39910;47.154;27.614;2023-06-04T03:54:10;13.70;;;13.00;;
34737;SDS011;39910;47.154;27.614;2023-06-04T03:56:36;12.75;;;12.15;;
34737;SDS011;39910;47.154;27.614;2023-06-04T03:59:02;12.80;;;12.20;;
34737;SDS011;39910;47.154;27.614;2023-06-04T04:01:27;13.57;;;12.90;;
34737;SDS011;39910;47.154;27.614;2023-06-04T04:03:53;13.43;;;12.82;;
34737;SDS011;39910;47.154;27.614;2023-06-04T04:06:19;13.65;;;13.00;;
34737;SDS011;39910;47.154;27.614;2023-06-04T04:08:45;13.60;;;12.95;;
34737;SDS011;39910;47.154;27.614;2023-06-04T04:11:13;13.20;;;12.60;;
34737;SDS011;39910;47.154;27.614;2023-06-04T04:13:39;13.13;;;12.52;;
34737;SDS011;39910;47.154;27.614;2023-06-04T04:16:04;12.77;;;12.18;;
34737;SDS011;39910;47.154;27.614;2023-06-04T04:18:33;12.80;;;12.20;;
34737;SDS011;39910;47.154;27.614;2023-06-04T04:20:59;12.82;;;12.23;;
34737;SDS011;39910;47.154;27.614;2023-06-04T04:23:24;13.40;;;12.80;;
34737;SDS011;39910;47.154;27.614;2023-06-04T04:25:50;12.63;;;12.02;;
34737;SDS011;39910;47.154;27.614;2023-06-04T04:28:15;12.90;;;12.30;;
34737;SDS011;39910;47.154;27.614;2023-06-04T04:30:42;12.32;;;11.77;;
34737;SDS011;39910;47.154;27.614;2023-06-04T04:33:07;12.13;;;11.63;;
34737;SDS011;39910;47.154;27.614;2023-06-04T04:35:33;12.05;;;11.55;;
34737;SDS011;39910;47.154;27.614;2023-06-04T04:37:59;12.40;;;11.80;;
34737;SDS011;39910;47.154;27.614;2023-06-04T04:40:28;12.55;;;11.95;;
34737;SDS011;39910;47.154;27.614;2023-06-04T04:42:53;13.10;;;12.50;;
34737;SDS011;39910;47.154;27.614;2023-06-04T04:45:18;12.00;;;11.50;;
34737;SDS011;39910;47.154;27.614;2023-06-04T04:47:44;12.38;;;11.80;;
34737;SDS011;39910;47.154;27.614;2023-06-04T04:50:10;12.63;;;12.03;;
34737;SDS011;39910;47.154;27.614;2023-06-04T04:52:35;12.70;;;12.10;;
34737;SDS011;39910;47.154;27.614;2023-06-04T04:55:00;12.10;;;11.60;;
34737;SDS011;39910;47.154;27.614;2023-06-04T04:57:26;11.70;;;11.20;;
34737;SDS011;39910;47.154;27.614;2023-06-04T04:59:51;12.00;;;11.50;;
34737;SDS011;39910;47.154;27.614;2023-06-04T05:02:16;11.98;;;11.48;;
34737;SDS011;39910;47.154;27.614;2023-06-04T05:04:42;11.90;;;11.40;;
34737;SDS011;39910;47.154;27.614;2023-06-04T05:07:07;12.20;;;11.70;;
34737;SDS011;39910;47.154;27.614;2023-06-04T05:09:32;11.93;;;11.43;;
34737;SDS011;39910;47.154;27.614;2023-06-04T05:11:58;12.00;;;11.50;;
34737;SDS011;39910;47.154;27.614;2023-06-04T05:14:23;12.10;;;11.60;;
34737;SDS011;39910;47.154;27.614;2023-06-04T05:16:48;11.95;;;11.45;;
34737;SDS011;39910;47.154;27.614;2023-06-04T05:19:15;12.82;;;12.23;;
34737;SDS011;39910;47.154;27.614;2023-06-04T05:21:41;12.65;;;12.05;;
34737;SDS011;39910;47.154;27.614;2023-06-04T05:24:08;11.82;;;11.32;;
34737;SDS011;39910;47.154;27.614;2023-06-04T05:26:34;12.50;;;11.90;;
34737;SDS011;39910;47.154;27.614;2023-06-04T05:28:59;12.10;;;11.60;;
34737;SDS011;39910;47.154;27.614;2023-06-04T05:31:26;12.10;;;11.60;;
34737;SDS011;39910;47.154;27.614;2023-06-04T05:33:51;12.10;;;11.60;;
34737;SDS011;39910;47.154;27.614;2023-06-04T05:36:17;12.27;;;11.77;;
34737;SDS011;39910;47.154;27.614;2023-06-04T05:38:42;12.45;;;11.85;;
34737;SDS011;39910;47.154;27.614;2023-06-04T05:41:07;12.30;;;11.80;;
34737;SDS011;39910;47.154;27.614;2023-06-04T05:43:33;12.13;;;11.63;;
34737;SDS011;39910;47.154;27.614;2023-06-04T05:45:58;11.90;;;11.40;;
34737;SDS011;39910;47.154;27.614;2023-06-04T05:48:24;12.18;;;11.68;;
34737;SDS011;39910;47.154;27.614;2023-06-04T05:50:49;12.50;;;11.90;;
34737;SDS011;39910;47.154;27.614;2023-06-04T05:53:15;11.90;;;11.40;;
34737;SDS011;39910;47.154;27.614;2023-06-04T05:55:41;11.80;;;11.30;;
34737;SDS011;39910;47.154;27.614;2023-06-04T05:58:06;11.67;;;11.17;;
34737;SDS011;39910;47.154;27.614;2023-06-04T06:00:31;11.50;;;11.00;;
34737;SDS011;39910;47.154;27.614;2023-06-04T06:02:57;12.02;;;11.52;;
34737;SDS011;39910;47.154;27.614;2023-06-04T06:05:22;12.53;;;11.93;;
34737;SDS011;39910;47.154;27.614;2023-06-04T06:07:47;12.33;;;11.80;;
34737;SDS011;39910;47.154;27.614;2023-06-04T06:10:13;12.45;;;11.85;;
34737;SDS011;39910;47.154;27.614;2023-06-04T06:12:38;12.95;;;12.35;;
34737;SDS011;39910;47.154;27.614;2023-06-04T06:15:04;11.88;;;11.38;;
34737;SDS011;39910;47.154;27.614;2023-06-04T06:17:30;12.07;;;11.57;;
34737;SDS011;39910;47.154;27.614;2023-06-04T06:19:55;12.00;;;11.50;;
34737;SDS011;39910;47.154;27.614;2023-06-04T06:22:21;12.10;;;11.60;;
34737;SDS011;39910;47.154;27.614;2023-06-04T06:24:46;12.13;;;11.63;;
34737;SDS011;39910;47.154;27.614;2023-06-04T06:27:13;12.00;;;11.50;;
34737;SDS011;39910;47.154;27.614;2023-06-04T06:29:39;12.20;;;11.70;;
34737;SDS011;39910;47.154;27.614;2023-06-04T06:32:05;12.20;;;11.70;;
34737;SDS011;39910;47.154;27.614;2023-06-04T06:34:32;12.60;;;12.00;;
34737;SDS011;39910;47.154;27.614;2023-06-04T06:36:57;13.68;;;13.07;;
34737;SDS011;39910;47.154;27.614;2023-06-04T06:39:23;12.67;;;12.07;;
34737;SDS011;39910;47.154;27.614;2023-06-04T06:41:48;12.60;;;12.00;;
34737;SDS011;39910;47.154;27.614;2023-06-04T06:44:13;12.88;;;12.27;;
34737;SDS011;39910;47.154;27.614;2023-06-04T06:46:39;13.10;;;12.50;;
34737;SDS011;39910;47.154;27.614;2023-06-04T06:49:04;12.50;;;11.90;;
34737;SDS011;39910;47.154;27.614;2023-06-04T06:51:29;12.60;;;12.00;;
34737;SDS011;39910;47.154;27.614;2023-06-04T06:53:56;13.00;;;12.40;;
34737;SDS011;39910;47.154;27.614;2023-06-04T06:56:21;12.75;;;12.15;;
34737;SDS011;39910;47.154;27.614;2023-06-04T06:58:47;12.80;;;12.20;;
34737;SDS011;39910;47.154;27.614;2023-06-04T07:01:12;13.00;;;12.40;;
34737;SDS011;39910;47.154;27.614;2023-06-04T07:03:38;12.75;;;12.15;;
34737;SDS011;39910;47.154;27.614;2023-06-04T07:06:05;12.65;;;12.05;;
34737;SDS011;39910;47.154;27.614;2023-06-04T07:08:31;12.85;;;12.25;;
34737;SDS011;39910;47.154;27.614;2023-06-04T07:10:56;12.88;;;12.27;;
34737;SDS011;39910;47.154;27.614;2023-06-04T07:13:22;12.82;;;12.23;;
34737;SDS011;39910;47.154;27.614;2023-06-04T07:15:48;12.55;;;11.95;;
34737;SDS011;39910;47.154;27.614;2023-06-04T07:18:13;12.52;;;11.93;;
34737;SDS011;39910;47.154;27.614;2023-06-04T07:20:38;12.48;;;11.88;;
34737;SDS011;39910;47.154;27.614;2023-06-04T07:23:04;13.10;;;12.50;;
34737;SDS011;39910;47.154;27.614;2023-06-04T07:25:29;12.70;;;12.10;;
34737;SDS011;39910;47.154;27.614;2023-06-04T07:27:55;13.55;;;12.93;;
34737;SDS011;39910;47.154;27.614;2023-06-04T07:30:23;13.27;;;12.68;;
34737;SDS011;39910;47.154;27.614;2023-06-04T07:32:48;13.13;;;12.52;;
34737;SDS011;39910;47.154;27.614;2023-06-04T07:35:15;13.40;;;12.80;;
34737;SDS011;39910;47.154;27.614;2023-06-04T07:37:40;14.00;;;13.30;;
34737;SDS011;39910;47.154;27.614;2023-06-04T07:40:09;13.60;;;12.90;;
34737;SDS011;39910;47.154;27.614;2023-06-04T07:42:35;12.40;;;11.80;;
34737;SDS011;39910;47.154;27.614;2023-06-04T07:45:00;13.55;;;12.85;;
34737;SDS011;39910;47.154;27.614;2023-06-04T07:47:26;13.55;;;12.85;;
34737;SDS011;39910;47.154;27.614;2023-06-04T07:49:52;13.77;;;13.07;;
34737;SDS011;39910;47.154;27.614;2023-06-04T07:52:18;14.52;;;13.73;;
34737;SDS011;39910;47.154;27.614;2023-06-04T07:54:43;13.70;;;13.00;;
34737;SDS011;39910;47.154;27.614;2023-06-04T07:57:08;13.15;;;12.50;;
34737;SDS011;39910;47.154;27.614;2023-06-04T07:59:34;13.85;;;13.15;;
34737;SDS011;39910;47.154;27.614;2023-06-04T08:01:59;13.40;;;12.70;;
34737;SDS011;39910;47.154;27.614;2023-06-04T08:04:25;14.25;;;13.50;;
34737;SDS011;39910;47.154;27.614;2023-06-04T08:06:50;14.25;;;13.48;;
34737;SDS011;39910;47.154;27.614;2023-06-04T08:09:18;13.95;;;13.25;;
34737;SDS011;39910;47.154;27.614;2023-06-04T08:11:43;13.82;;;13.13;;
34737;SDS011;39910;47.154;27.614;2023-06-04T08:14:10;13.15;;;12.45;;
34737;SDS011;39910;47.154;27.614;2023-06-04T08:16:35;12.77;;;12.18;;
34737;SDS011;39910;47.154;27.614;2023-06-04T08:19:00;12.90;;;12.30;;
34737;SDS011;39910;47.154;27.614;2023-06-04T08:21:26;13.95;;;13.25;;
34737;SDS011;39910;47.154;27.614;2023-06-04T08:23:51;14.25;;;13.45;;
34737;SDS011;39910;47.154;27.614;2023-06-04T08:26:18;13.48;;;12.77;;
34737;SDS011;39910;47.154;27.614;2023-06-04T08:28:44;13.75;;;13.05;;
34737;SDS011;39910;47.154;27.614;2023-06-04T08:31:10;13.40;;;12.70;;
34737;SDS011;39910;47.154;27.614;2023-06-04T08:33:35;13.57;;;12.88;;
34737;SDS011;39910;47.154;27.614;2023-06-04T08:36:01;13.48;;;12.77;;
34737;SDS011;39910;47.154;27.614;2023-06-04T08:38:26;13.00;;;12.38;;
34737;SDS011;39910;47.154;27.614;2023-06-04T08:40:52;12.90;;;12.30;;
34737;SDS011;39910;47.154;27.614;2023-06-04T08:43:17;12.95;;;12.32;;
34737;SDS011;39910;47.154;27.614;2023-06-04T08:45:43;12.63;;;12.02;;
34737;SDS011;39910;47.154;27.614;2023-06-04T08:48:14;13.05;;;12.40;;
34737;SDS011;39910;47.154;27.614;2023-06-04T08:50:40;13.20;;;12.55;;
34737;SDS011;39910;47.154;27.614;2023-06-04T08:53:07;12.43;;;11.82;;
34737;SDS011;39910;47.154;27.614;2023-06-04T08:55:33;12.60;;;12.00;;
34737;SDS011;39910;47.154;27.614;2023-06-04T08:58:02;14.57;;;13.77;;
34737;SDS011;39910;47.154;27.614;2023-06-04T09:00:33;13.10;;;12.45;;
34737;SDS011;39910;47.154;27.614;2023-06-04T09:02:58;13.48;;;12.77;;
34737;SDS011;39910;47.154;27.614;2023-06-04T09:05:26;13.10;;;12.45;;
34737;SDS011;39910;47.154;27.614;2023-06-04T09:07:52;13.13;;;12.45;;
34737;SDS011;39910;47.154;27.614;2023-06-04T09:10:19;13.52;;;12.82;;
34737;SDS011;39910;47.154;27.614;2023-06-04T09:12:47;13.93;;;13.23;;
34737;SDS011;39910;47.154;27.614;2023-06-04T09:15:12;12.88;;;12.25;;
34737;SDS011;39910;47.154;27.614;2023-06-04T09:17:38;12.40;;;11.80;;
34737;SDS011;39910;47.154;27.614;2023-06-04T09:20:04;12.68;;;12.07;;
34737;SDS011;39910;47.154;27.614;2023-06-04T09:22:34;13.30;;;12.60;;
34737;SDS011;39910;47.154;27.614;2023-06-04T09:25:03;13.65;;;12.95;;
34737;SDS011;39910;47.154;27.614;2023-06-04T09:27:36;13.05;;;12.43;;
34737;SDS011;39910;47.154;27.614;2023-06-04T09:30:02;12.70;;;12.10;;
34737;SDS011;39910;47.154;27.614;2023-06-04T09:32:29;13.80;;;13.10;;
34737;SDS011;39910;47.154;27.614;2023-06-04T09:34:55;13.15;;;12.45;;
34737;SDS011;39910;47.154;27.614;2023-06-04T09:37:22;13.20;;;12.50;;
34737;SDS011;39910;47.154;27.614;2023-06-04T09:39:57;13.02;;;12.43;;
34737;SDS011;39910;47.154;27.614;2023-06-04T09:42:23;13.20;;;12.50;;
34737;SDS011;39910;47.154;27.614;2023-06-04T09:44:48;13.57;;;12.88;;
34737;SDS011;39910;47.154;27.614;2023-06-04T09:47:13;12.98;;;12.38;;
34737;SDS011;39910;47.154;27.614;2023-06-04T09:49:42;12.90;;;12.30;;
34737;SDS011;39910;47.154;27.614;2023-06-04T09:52:08;11.95;;;11.43;;
34737;SDS011;39910;47.154;27.614;2023-06-04T09:54:36;12.30;;;11.70;;
34737;SDS011;39910;47.154;27.614;2023-06-04T09:57:02;12.38;;;11.77;;
34737;SDS011;39910;47.154;27.614;2023-06-04T09:59:29;12.90;;;12.30;;
34737;SDS011;39910;47.154;27.614;2023-06-04T10:01:55;12.60;;;12.00;;
34737;SDS011;39910;47.154;27.614;2023-06-04T10:04:21;12.93;;;12.30;;
34737;SDS011;39910;47.154;27.614;2023-06-04T10:06:47;13.18;;;12.48;;
34737;SDS011;39910;47.154;27.614;2023-06-04T10:09:12;12.50;;;11.90;;
34737;SDS011;39910;47.154;27.614;2023-06-04T10:11:44;12.48;;;11.88;;
34737;SDS011;39910;47.154;27.614;2023-06-04T10:16:46;13.75;;;13.05;;
34737;SDS011;39910;47.154;27.614;2023-06-04T10:19:12;13.02;;;12.40;;
34737;SDS011;39910;47.154;27.614;2023-06-04T10:21:38;12.63;;;12.02;;
34737;SDS011;39910;47.154;27.614;2023-06-04T10:24:03;13.60;;;12.90;;
34737;SDS011;39910;47.154;27.614;2023-06-04T10:26:29;13.20;;;12.50;;
34737;SDS011;39910;47.154;27.614;2023-06-04T10:28:56;12.38;;;11.77;;
34737;SDS011;39910;47.154;27.614;2023-06-04T10:31:21;12.77;;;12.18;;
34737;SDS011;39910;47.154;27.614;2023-06-04T10:33:47;12.48;;;11.88;;
34737;SDS011;39910;47.154;27.614;2023-06-04T10:36:16;12.70;;;12.10;;
34737;SDS011;39910;47.154;27.614;2023-06-04T10:38:53;13.00;;;12.35;;
34737;SDS011;39910;47.154;27.614;2023-06-04T10:41:19;12.68;;;12.07;;
34737;SDS011;39910;47.154;27.614;2023-06-04T10:43:51;13.00;;;12.35;;
34737;SDS011;39910;47.154;27.614;2023-06-04T10:46:18;12.65;;;12.05;;
34737;SDS011;39910;47.154;27.614;2023-06-04T10:51:13;13.23;;;12.52;;
34737;SDS011;39910;47.154;27.614;2023-06-04T10:53:38;12.40;;;11.80;;
34737;SDS011;39910;47.154;27.614;2023-06-04T10:56:04;12.55;;;11.95;;
34737;SDS011;39910;47.154;27.614;2023-06-04T10:58:33;12.68;;;12.07;;
34737;SDS011;39910;47.154;27.614;2023-06-04T11:00:58;12.90;;;12.30;;
34737;SDS011;39910;47.154;27.614;2023-06-04T11:03:23;13.30;;;12.60;;
34737;SDS011;39910;47.154;27.614;2023-06-04T11:05:59;13.30;;;12.60;;
34737;SDS011;39910;47.154;27.614;2023-06-04T11:08:29;13.60;;;12.90;;
34737;SDS011;39910;47.154;27.614;2023-06-04T11:10:55;13.73;;;13.00;;
34737;SDS011;39910;47.154;27.614;2023-06-04T11:13:26;12.15;;;11.55;;
34737;SDS011;39910;47.154;27.614;2023-06-04T11:15:52;12.70;;;12.10;;
34737;SDS011;39910;47.154;27.614;2023-06-04T11:18:18;13.35;;;12.65;;
34737;SDS011;39910;47.154;27.614;2023-06-04T11:20:44;13.48;;;12.77;;
34737;SDS011;39910;47.154;27.614;2023-06-04T11:23:11;12.10;;;11.50;;
34737;SDS011;39910;47.154;27.614;2023-06-04T11:25:36;12.93;;;12.27;;
34737;SDS011;39910;47.154;27.614;2023-06-04T11:28:01;12.98;;;12.32;;
34737;SDS011;39910;47.154;27.614;2023-06-04T11:30:27;12.45;;;11.85;;
34737;SDS011;39910;47.154;27.614;2023-06-04T11:33:04;13.18;;;12.48;;
34737;SDS011;39910;47.154;27.614;2023-06-04T11:35:30;12.40;;;11.80;;
34737;SDS011;39910;47.154;27.614;2023-06-04T11:37:57;12.50;;;11.90;;
34737;SDS011;39910;47.154;27.614;2023-06-04T11:40:23;14.70;;;13.90;;
34737;SDS011;39910;47.154;27.614;2023-06-04T11:42:49;12.20;;;11.60;;
34737;SDS011;39910;47.154;27.614;2023-06-04T11:45:14;12.40;;;11.80;;
34737;SDS011;39910;47.154;27.614;2023-06-04T11:50:14;12.55;;;11.95;;
34737;SDS011;39910;47.154;27.614;2023-06-04T11:52:40;12.30;;;11.70;;
34737;SDS011;39910;47.154;27.614;2023-06-04T11:55:09;13.07;;;12.38;;
34737;SDS011;39910;47.154;27.614;2023-06-04T11:57:35;13.07;;;12.43;;
34737;SDS011;39910;47.154;27.614;2023-06-04T12:00:01;13.40;;;12.73;;
34737;SDS011;39910;47.154;27.614;2023-06-04T12:02:26;13.20;;;12.50;;
34737;SDS011;39910;47.154;27.614;2023-06-04T12:04:51;12.70;;;12.10;;
34737;SDS011;39910;47.154;27.614;2023-06-04T12:07:20;12.63;;;12.02;;
34737;SDS011;39910;47.154;27.614;2023-06-04T12:09:49;13.02;;;12.38;;
34737;SDS011;39910;47.154;27.614;2023-06-04T12:12:14;12.70;;;12.10;;
34737;SDS011;39910;47.154;27.614;2023-06-04T12:14:40;13.02;;;12.38;;
34737;SDS011;39910;47.154;27.614;2023-06-04T12:17:06;12.27;;;11.68;;
34737;SDS011;39910;47.154;27.614;2023-06-04T12:19:31;12.52;;;11.93;;
34737;SDS011;39910;47.154;27.614;2023-06-04T12:22:06;12.43;;;11.82;;
34737;SDS011;39910;47.154;27.614;2023-06-04T12:24:33;12.60;;;12.00;;
34737;SDS011;39910;47.154;27.614;2023-06-04T12:27:10;12.63;;;12.02;;
34737;SDS011;39910;47.154;27.614;2023-06-04T12:29:37;11.75;;;11.25;;
34737;SDS011;39910;47.154;27.614;2023-06-04T12:32:03;12.32;;;11.73;;
34737;SDS011;39910;47.154;27.614;2023-06-04T12:34:30;12.27;;;11.68;;
34737;SDS011;39910;47.154;27.614;2023-06-04T12:36:55;12.40;;;11.80;;
34737;SDS011;39910;47.154;27.614;2023-06-04T12:39:21;12.50;;;11.90;;
34737;SDS011;39910;47.154;27.614;2023-06-04T12:41:46;12.52;;;11.93;;
34737;SDS011;39910;47.154;27.614;2023-06-04T12:44:11;12.60;;;12.00;;
34737;SDS011;39910;47.154;27.614;2023-06-04T12:46:37;12.52;;;11.93;;
34737;SDS011;39910;47.154;27.614;2023-06-04T12:49:02;12.07;;;11.48;;
34737;SDS011;39910;47.154;27.614;2023-06-04T12:51:27;12.57;;;11.98;;
34737;SDS011;39910;47.154;27.614;2023-06-04T12:53:53;12.93;;;12.32;;
34737;SDS011;39910;47.154;27.614;2023-06-04T12:56:18;13.27;;;12.57;;
34737;SDS011;39910;47.154;27.614;2023-06-04T12:58:44;12.65;;;12.05;;
34737;SDS011;39910;47.154;27.614;2023-06-04T13:01:09;12.60;;;12.00;;
34737;SDS011;39910;47.154;27.614;2023-06-04T13:03:39;13.15;;;12.45;;
34737;SDS011;39910;47.154;27.614;2023-06-04T13:06:04;12.95;;;12.35;;
34737;SDS011;39910;47.154;27.614;2023-06-04T13:08:30;13.50;;;12.80;;
34737;SDS011;39910;47.154;27.614;2023-06-04T13:10:57;13.00;;;12.40;;
34737;SDS011;39910;47.154;27.614;2023-06-04T13:13:22;12.60;;;12.00;;
34737;SDS011;39910;47.154;27.614;2023-06-04T13:15:47;13.07;;;12.48;;
34737;SDS011;39910;47.154;27.614;2023-06-04T13:18:13;12.43;;;11.82;;
34737;SDS011;39910;47.154;27.614;2023-06-04T13:20:41;12.50;;;11.90;;
34737;SDS011;39910;47.154;27.614;2023-06-04T13:23:07;11.50;;;11.00;;
34737;SDS011;39910;47.154;27.614;2023-06-04T13:25:33;12.00;;;11.40;;
34737;SDS011;39910;47.154;27.614;2023-06-04T13:28:04;11.75;;;11.25;;
34737;SDS011;39910;47.154;27.614;2023-06-04T13:30:30;12.57;;;11.98;;
34737;SDS011;39910;47.154;27.614;2023-06-04T13:32:55;12.60;;;12.00;;
34737;SDS011;39910;47.154;27.614;2023-06-04T13:35:21;12.00;;;11.40;;
34737;SDS011;39910;47.154;27.614;2023-06-04T13:37:46;12.23;;;11.63;;
34737;SDS011;39910;47.154;27.614;2023-06-04T13:40:12;13.48;;;12.77;;
34737;SDS011;39910;47.154;27.614;2023-06-04T13:42:38;12.82;;;12.23;;
34737;SDS011;39910;47.154;27.614;2023-06-04T13:45:03;13.15;;;12.45;;
34737;SDS011;39910;47.154;27.614;2023-06-04T13:47:28;13.13;;;12.43;;
34737;SDS011;39910;47.154;27.614;2023-06-04T13:49:54;12.95;;;12.32;;
34737;SDS011;39910;47.154;27.614;2023-06-04T13:52:19;13.60;;;12.90;;
34737;SDS011;39910;47.154;27.614;2023-06-04T13:54:44;13.50;;;12.80;;
34737;SDS011;39910;47.154;27.614;2023-06-04T13:57:10;12.40;;;11.80;;
34737;SDS011;39910;47.154;27.614;2023-06-04T13:59:36;12.80;;;12.20;;
34737;SDS011;39910;47.154;27.614;2023-06-04T14:02:02;11.35;;;10.85;;
34737;SDS011;39910;47.154;27.614;2023-06-04T14:04:27;13.07;;;12.40;;
34737;SDS011;39910;47.154;27.614;2023-06-04T14:06:52;12.68;;;12.07;;
34737;SDS011;39910;47.154;27.614;2023-06-04T14:09:18;12.88;;;12.27;;
34737;SDS011;39910;47.154;27.614;2023-06-04T14:11:43;12.57;;;11.98;;